sensor_id;sensor_type;location;lat;lon;timestamp;pressure;altitude;pressure_sealevel;temperature;humidity
79230;BME280;68663;49.122;17.544;2023-08-12T00:00:55;99988.47;;;24.43;49.39
79230;BME280;68663;49.122;17.544;2023-08-12T00:03:21;99993.31;;;24.42;49.15
79230;BME280;68663;49.122;17.544;2023-08-12T00:05:46;99993.31;;;24.42;49.12
79230;BME280;68663;49.122;17.544;2023-08-12T00:08:12;99984.03;;;24.42;48.91
79230;BME280;68663;49.122;17.544;2023-08-12T00:10:37;99983.25;;;24.41;49.11
79230;BME280;68663;49.122;17.544;2023-08-12T00:13:03;99978.44;;;24.38;49.09
79230;BME280;68663;49.122;17.544;2023-08-12T00:15:28;99979.66;;;24.37;48.93
79230;BME280;68663;49.122;17.544;2023-08-12T00:17:54;99980.06;;;24.36;49.03
79230;BME280;68663;49.122;17.544;2023-08-12T00:20:19;99976.44;;;24.35;49.02
79230;BME280;68663;49.122;17.544;2023-08-12T00:22:45;99974.41;;;24.36;48.88
79230;BME280;68663;49.122;17.544;2023-08-12T00:25:10;99984.91;;;24.35;49.05
79230;BME280;68663;49.122;17.544;2023-08-12T00:27:36;99995.00;;;24.36;48.94
79230;BME280;68663;49.122;17.544;2023-08-12T00:30:03;99985.72;;;24.36;48.92
79230;BME280;68663;49.122;17.544;2023-08-12T00:32:29;99981.66;;;24.37;49.13
79230;BME280;68663;49.122;17.544;2023-08-12T00:34:55;99980.06;;;24.36;48.48
79230;BME280;68663;49.122;17.544;2023-08-12T00:37:20;99980.88;;;24.36;48.96
79230;BME280;68663;49.122;17.544;2023-08-12T00:39:46;99975.22;;;24.36;48.76
79230;BME280;68663;49.122;17.544;2023-08-12T00:42:11;99967.97;;;24.35;48.86
79230;BME280;68663;49.122;17.544;2023-08-12T00:44:37;99975.22;;;24.36;49.07
79230;BME280;68663;49.122;17.544;2023-08-12T00:47:02;99973.59;;;24.35;48.86
79230;BME280;68663;49.122;17.544;2023-08-12T00:49:28;99979.25;;;24.35;48.60
79230;BME280;68663;49.122;17.544;2023-08-12T00:51:54;99977.66;;;24.34;48.60
79230;BME280;68663;49.122;17.544;2023-08-12T00:54:21;99976.44;;;24.35;48.54
79230;BME280;68663;49.122;17.544;2023-08-12T00:56:48;99986.13;;;24.34;48.95
79230;BME280;68663;49.122;17.544;2023-08-12T00:59:14;99985.31;;;24.34;48.78
79230;BME280;68663;49.122;17.544;2023-08-12T01:01:42;99983.72;;;24.33;48.65
79230;BME280;68663;49.122;17.544;2023-08-12T01:04:08;99984.13;;;24.31;48.34
79230;BME280;68663;49.122;17.544;2023-08-12T01:06:34;99986.59;;;24.29;48.46
79230;BME280;68663;49.122;17.544;2023-08-12T01:09:00;99989.00;;;24.27;48.33
79230;BME280;68663;49.122;17.544;2023-08-12T01:11:42;99987.34;;;24.26;48.27
79230;BME280;68663;49.122;17.544;2023-08-12T01:16:42;99995.06;;;24.22;48.40
79230;BME280;68663;49.122;17.544;2023-08-12T01:19:10;99986.56;;;24.22;48.18
79230;BME280;68663;49.122;17.544;2023-08-12T01:21:38;99993.84;;;24.23;48.08
79230;BME280;68663;49.122;17.544;2023-08-12T01:24:07;99999.50;;;24.23;48.29
79230;BME280;68663;49.122;17.544;2023-08-12T01:26:33;100001.50;;;24.23;48.31
79230;BME280;68663;49.122;17.544;2023-08-12T01:28:59;100001.50;;;24.23;48.50
79230;BME280;68663;49.122;17.544;2023-08-12T01:31:32;100003.53;;;24.22;48.07
79230;BME280;68663;49.122;17.544;2023-08-12T01:34:11;99996.66;;;24.23;48.36
79230;BME280;68663;49.122;17.544;2023-08-12T01:36:39;100002.31;;;24.23;48.13
79230;BME280;68663;49.122;17.544;2023-08-12T01:39:06;100000.72;;;24.22;48.21
79230;BME280;68663;49.122;17.544;2023-08-12T01:41:34;100000.72;;;24.22;48.08
79230;BME280;68663;49.122;17.544;2023-08-12T01:44:02;100007.16;;;24.23;48.18
79230;BME280;68663;49.122;17.544;2023-08-12T01:46:27;100004.38;;;24.19;47.88
79230;BME280;68663;49.122;17.544;2023-08-12T01:48:53;100008.41;;;24.18;48.12
79230;BME280;68663;49.122;17.544;2023-08-12T01:51:18;100008.81;;;24.17;47.96
79230;BME280;68663;49.122;17.544;2023-08-12T01:53:44;100010.03;;;24.15;48.07
79230;BME280;68663;49.122;17.544;2023-08-12T01:56:09;100014.50;;;24.13;48.07
79230;BME280;68663;49.122;17.544;2023-08-12T01:58:35;100014.09;;;24.14;48.06
79230;BME280;68663;49.122;17.544;2023-08-12T02:04:03;100008.44;;;24.14;47.91
79230;BME280;68663;49.122;17.544;2023-08-12T02:06:28;100013.66;;;24.16;47.82
79230;BME280;68663;49.122;17.544;2023-08-12T02:08:53;100009.25;;;24.15;48.00
79230;BME280;68663;49.122;17.544;2023-08-12T02:11:19;100012.06;;;24.15;47.67
79230;BME280;68663;49.122;17.544;2023-08-12T02:13:44;100005.19;;;24.16;47.99
79230;BME280;68663;49.122;17.544;2023-08-12T02:16:10;99992.28;;;24.15;47.97
79230;BME280;68663;49.122;17.544;2023-08-12T02:18:35;99992.28;;;24.15;47.79
79230;BME280;68663;49.122;17.544;2023-08-12T02:21:00;99985.84;;;24.14;47.86
79230;BME280;68663;49.122;17.544;2023-08-12T02:23:26;99987.06;;;24.13;47.80
79230;BME280;68663;49.122;17.544;2023-08-12T02:25:52;99986.63;;;24.15;47.77
79230;BME280;68663;49.122;17.544;2023-08-12T02:28:19;99993.50;;;24.14;48.04
79230;BME280;68663;49.122;17.544;2023-08-12T02:30:45;99983.44;;;24.13;47.73
79230;BME280;68663;49.122;17.544;2023-08-12T02:33:10;99985.03;;;24.14;47.63
79230;BME280;68663;49.122;17.544;2023-08-12T02:35:36;99987.06;;;24.13;47.62
79230;BME280;68663;49.122;17.544;2023-08-12T02:38:01;99984.66;;;24.12;47.58
79230;BME280;68663;49.122;17.544;2023-08-12T02:40:26;99983.44;;;24.09;47.59
79230;BME280;68663;49.122;17.544;2023-08-12T02:42:52;99986.69;;;24.08;47.35
79230;BME280;68663;49.122;17.544;2023-08-12T02:45:17;99991.94;;;24.06;47.25
79230;BME280;68663;49.122;17.544;2023-08-12T02:47:43;99978.25;;;24.04;47.57
79230;BME280;68663;49.122;17.544;2023-08-12T02:50:08;99991.56;;;24.04;47.81
79230;BME280;68663;49.122;17.544;2023-08-12T02:52:35;99984.31;;;24.03;47.18
79230;BME280;68663;49.122;17.544;2023-08-12T02:55:00;99981.47;;;24.03;47.38
79230;BME280;68663;49.122;17.544;2023-08-12T02:57:26;99976.63;;;24.03;47.55
79230;BME280;68663;49.122;17.544;2023-08-12T02:59:51;99978.66;;;24.03;47.56
79230;BME280;68663;49.122;17.544;2023-08-12T03:02:16;99971.41;;;24.02;47.48
79230;BME280;68663;49.122;17.544;2023-08-12T03:04:42;99975.84;;;24.03;47.47
79230;BME280;68663;49.122;17.544;2023-08-12T03:07:07;99974.22;;;24.02;47.55
79230;BME280;68663;49.122;17.544;2023-08-12T03:09:33;99983.50;;;24.02;47.32
79230;BME280;68663;49.122;17.544;2023-08-12T03:11:58;99977.06;;;24.02;47.17
79230;BME280;68663;49.122;17.544;2023-08-12T03:14:28;99984.31;;;24.03;47.63
79230;BME280;68663;49.122;17.544;2023-08-12T03:16:54;99991.19;;;24.02;47.56
79230;BME280;68663;49.122;17.544;2023-08-12T03:19:20;99984.31;;;24.03;47.75
79230;BME280;68663;49.122;17.544;2023-08-12T03:21:45;99973.03;;;23.99;47.65
79230;BME280;68663;49.122;17.544;2023-08-12T03:24:11;99972.22;;;23.99;47.51
79230;BME280;68663;49.122;17.544;2023-08-12T03:26:36;99965.41;;;23.96;47.47
79230;BME280;68663;49.122;17.544;2023-08-12T03:29:01;99972.25;;;23.95;47.58
79230;BME280;68663;49.122;17.544;2023-08-12T03:31:27;99971.47;;;23.95;47.38
79230;BME280;68663;49.122;17.544;2023-08-12T03:33:52;99965.81;;;23.95;47.65
79230;BME280;68663;49.122;17.544;2023-08-12T03:36:17;99961.38;;;23.94;47.47
79230;BME280;68663;49.122;17.544;2023-08-12T03:38:43;99969.84;;;23.94;47.22
79230;BME280;68663;49.122;17.544;2023-08-12T03:41:08;99965.81;;;23.95;47.38
79230;BME280;68663;49.122;17.544;2023-08-12T03:43:34;99968.63;;;23.95;47.38
79230;BME280;68663;49.122;17.544;2023-08-12T03:45:59;99963.78;;;23.95;47.27
79230;BME280;68663;49.122;17.544;2023-08-12T03:48:25;99965.81;;;23.95;47.09
79230;BME280;68663;49.122;17.544;2023-08-12T03:50:50;99979.50;;;23.96;47.26
79230;BME280;68663;49.122;17.544;2023-08-12T03:53:16;99979.50;;;23.96;47.29
79230;BME280;68663;49.122;17.544;2023-08-12T03:55:42;99979.50;;;23.96;47.23
79230;BME280;68663;49.122;17.544;2023-08-12T03:58:08;99969.44;;;23.95;47.32
79230;BME280;68663;49.122;17.544;2023-08-12T04:00:33;99967.84;;;23.94;47.41
79230;BME280;68663;49.122;17.544;2023-08-12T04:02:59;99962.97;;;23.95;47.28
79230;BME280;68663;49.122;17.544;2023-08-12T04:05:24;99969.44;;;23.95;47.13
79230;BME280;68663;49.122;17.544;2023-08-12T04:07:50;99977.09;;;23.95;47.30
79230;BME280;68663;49.122;17.544;2023-08-12T04:10:15;99972.25;;;23.95;47.19
79230;BME280;68663;49.122;17.544;2023-08-12T04:12:41;99969.06;;;23.93;47.28
79230;BME280;68663;49.122;17.544;2023-08-12T04:15:07;99966.63;;;23.92;47.06
79230;BME280;68663;49.122;17.544;2023-08-12T04:17:33;99970.69;;;23.91;46.99
79230;BME280;68663;49.122;17.544;2023-08-12T04:19:58;99967.47;;;23.89;47.29
79230;BME280;68663;49.122;17.544;2023-08-12T04:22:24;99972.72;;;23.87;47.26
79230;BME280;68663;49.122;17.544;2023-08-12T04:24:49;99970.31;;;23.85;47.55
79230;BME280;68663;49.122;17.544;2023-08-12T04:27:14;99962.25;;;23.83;47.48
79230;BME280;68663;49.122;17.544;2023-08-12T04:29:42;99960.25;;;23.84;47.22
79230;BME280;68663;49.122;17.544;2023-08-12T04:32:07;99954.59;;;23.84;47.36
79230;BME280;68663;49.122;17.544;2023-08-12T04:34:32;99966.69;;;23.85;47.32
79230;BME280;68663;49.122;17.544;2023-08-12T04:36:58;99972.75;;;23.83;47.24
79230;BME280;68663;49.122;17.544;2023-08-12T04:39:23;99971.53;;;23.84;47.32
79230;BME280;68663;49.122;17.544;2023-08-12T04:41:49;99982.41;;;23.86;47.38
79230;BME280;68663;49.122;17.544;2023-08-12T04:44:14;99978.78;;;23.85;47.37
79230;BME280;68663;49.122;17.544;2023-08-12T04:46:39;99973.94;;;23.86;47.47
79230;BME280;68663;49.122;17.544;2023-08-12T04:49:05;99976.78;;;23.86;47.47
79230;BME280;68663;49.122;17.544;2023-08-12T04:51:31;99976.78;;;23.86;47.32
79230;BME280;68663;49.122;17.544;2023-08-12T04:53:56;99976.78;;;23.86;47.36
79230;BME280;68663;49.122;17.544;2023-08-12T04:56:22;99972.34;;;23.85;47.54
79230;BME280;68663;49.122;17.544;2023-08-12T04:58:49;99976.38;;;23.83;47.42
79230;BME280;68663;49.122;17.544;2023-08-12T05:01:14;99973.16;;;23.81;47.72
79230;BME280;68663;49.122;17.544;2023-08-12T05:03:40;99968.72;;;23.80;47.52
79230;BME280;68663;49.122;17.544;2023-08-12T05:06:05;99969.94;;;23.79;47.79
79230;BME280;68663;49.122;17.544;2023-08-12T05:08:31;99980.44;;;23.79;47.74
79230;BME280;68663;49.122;17.544;2023-08-12T05:10:57;99976.81;;;23.78;47.90
79230;BME280;68663;49.122;17.544;2023-08-12T05:13:22;99979.22;;;23.80;47.83
79230;BME280;68663;49.122;17.544;2023-08-12T05:15:49;99979.22;;;23.80;47.95
79230;BME280;68663;49.122;17.544;2023-08-12T05:18:15;99975.19;;;23.81;47.87
79230;BME280;68663;49.122;17.544;2023-08-12T05:20:41;99978.81;;;23.81;47.94
79230;BME280;68663;49.122;17.544;2023-08-12T05:23:07;99973.16;;;23.81;47.98
79230;BME280;68663;49.122;17.544;2023-08-12T05:25:33;99986.06;;;23.82;47.88
79230;BME280;68663;49.122;17.544;2023-08-12T05:27:58;99980.41;;;23.82;48.13
79230;BME280;68663;49.122;17.544;2023-08-12T05:30:24;99983.25;;;23.82;48.00
79230;BME280;68663;49.122;17.544;2023-08-12T05:32:50;99984.47;;;23.81;48.15
79230;BME280;68663;49.122;17.544;2023-08-12T05:35:15;99976.78;;;23.82;48.20
79230;BME280;68663;49.122;17.544;2023-08-12T05:37:41;99985.25;;;23.86;48.19
79230;BME280;68663;49.122;17.544;2023-08-12T05:40:08;99986.03;;;23.86;48.43
79230;BME280;68663;49.122;17.544;2023-08-12T05:42:34;99992.09;;;23.88;48.43
79230;BME280;68663;49.122;17.544;2023-08-12T05:45:00;99988.03;;;23.89;48.39
79230;BME280;68663;49.122;17.544;2023-08-12T05:47:25;99991.25;;;23.91;48.44
79230;BME280;68663;49.122;17.544;2023-08-12T05:49:51;99986.03;;;23.90;48.54
79230;BME280;68663;49.122;17.544;2023-08-12T05:52:16;99985.59;;;23.91;48.48
79230;BME280;68663;49.122;17.544;2023-08-12T05:54:41;99988.03;;;23.89;48.67
79230;BME280;68663;49.122;17.544;2023-08-12T05:57:07;99985.19;;;23.93;48.87
79230;BME280;68663;49.122;17.544;2023-08-12T05:59:32;99981.56;;;23.92;48.93
79230;BME280;68663;49.122;17.544;2023-08-12T06:01:58;99976.72;;;23.93;49.16
79230;BME280;68663;49.122;17.544;2023-08-12T06:04:23;99982.38;;;23.93;48.96
79230;BME280;68663;49.122;17.544;2023-08-12T06:06:48;99975.50;;;23.94;49.33
79230;BME280;68663;49.122;17.544;2023-08-12T06:09:14;99984.34;;;23.96;49.11
79230;BME280;68663;49.122;17.544;2023-08-12T06:11:39;99971.47;;;23.95;49.57
79230;BME280;68663;49.122;17.544;2023-08-12T06:14:04;99976.28;;;23.98;49.59
79230;BME280;68663;49.122;17.544;2023-08-12T06:16:30;99969.81;;;23.97;49.82
79230;BME280;68663;49.122;17.544;2023-08-12T06:18:55;99975.06;;;23.99;49.45
79230;BME280;68663;49.122;17.544;2023-08-12T06:21:21;99976.25;;;24.01;49.93
79230;BME280;68663;49.122;17.544;2023-08-12T06:23:46;99978.66;;;24.03;49.76
79230;BME280;68663;49.122;17.544;2023-08-12T06:26:11;99982.28;;;24.03;50.57
79230;BME280;68663;49.122;17.544;2023-08-12T06:28:37;99980.25;;;24.04;50.47
79230;BME280;68663;49.122;17.544;2023-08-12T06:31:02;99985.50;;;24.05;49.98
79230;BME280;68663;49.122;17.544;2023-08-12T06:33:27;99982.66;;;24.09;49.88
79230;BME280;68663;49.122;17.544;2023-08-12T06:35:53;99979.81;;;24.09;49.72
79230;BME280;68663;49.122;17.544;2023-08-12T06:38:18;99975.38;;;24.11;49.63
79230;BME280;68663;49.122;17.544;2023-08-12T06:40:44;99971.31;;;24.12;49.71
79230;BME280;68663;49.122;17.544;2023-08-12T06:43:09;99974.94;;;24.13;49.76
79230;BME280;68663;49.122;17.544;2023-08-12T06:45:35;99967.66;;;24.15;49.61
79230;BME280;68663;49.122;17.544;2023-08-12T06:48:01;99974.13;;;24.16;49.67
79230;BME280;68663;49.122;17.544;2023-08-12T06:50:29;99974.50;;;24.18;49.86
79230;BME280;68663;49.122;17.544;2023-08-12T06:52:55;99958.78;;;24.17;50.21
79230;BME280;68663;49.122;17.544;2023-08-12T06:55:21;99960.75;;;24.20;52.26
79230;BME280;68663;49.122;17.544;2023-08-12T06:57:46;99963.97;;;24.22;52.52
79230;BME280;68663;49.122;17.544;2023-08-12T07:00:12;99953.06;;;24.24;52.93
79230;BME280;68663;49.122;17.544;2023-08-12T07:02:37;99958.28;;;24.26;52.73
79230;BME280;68663;49.122;17.544;2023-08-12T07:05:05;99970.41;;;24.26;52.35
79230;BME280;68663;49.122;17.544;2023-08-12T07:07:30;99965.19;;;24.28;52.37
79230;BME280;68663;49.122;17.544;2023-08-12T07:09:56;99968.03;;;24.28;52.24
79230;BME280;68663;49.122;17.544;2023-08-12T07:12:21;99955.50;;;24.29;52.37
79230;BME280;68663;49.122;17.544;2023-08-12T07:14:47;99959.94;;;24.30;51.84
79230;BME280;68663;49.122;17.544;2023-08-12T07:17:12;99953.06;;;24.31;51.93
79230;BME280;68663;49.122;17.544;2023-08-12T07:19:37;99950.63;;;24.33;52.00
79230;BME280;68663;49.122;17.544;2023-08-12T07:22:03;99948.19;;;24.35;51.97
79230;BME280;68663;49.122;17.544;2023-08-12T07:24:28;99951.38;;;24.37;51.57
79230;BME280;68663;49.122;17.544;2023-08-12T07:26:54;99947.34;;;24.38;51.78
79230;BME280;68663;49.122;17.544;2023-08-12T07:29:19;99942.06;;;24.40;52.47
79230;BME280;68663;49.122;17.544;2023-08-12T07:31:45;99939.63;;;24.42;52.38
79230;BME280;68663;49.122;17.544;2023-08-12T07:34:10;99937.97;;;24.45;52.12
79230;BME280;68663;49.122;17.544;2023-08-12T07:36:39;99944.81;;;24.48;52.10
79230;BME280;68663;49.122;17.544;2023-08-12T07:39:04;99946.03;;;24.47;51.63
79230;BME280;68663;49.122;17.544;2023-08-12T07:41:29;99937.56;;;24.47;51.87
79230;BME280;68663;49.122;17.544;2023-08-12T07:43:55;99937.94;;;24.49;52.03
79230;BME280;68663;49.122;17.544;2023-08-12T07:46:20;99937.09;;;24.52;52.26
79230;BME280;68663;49.122;17.544;2023-08-12T07:48:46;99938.72;;;24.53;52.23
79230;BME280;68663;49.122;17.544;2023-08-12T07:51:11;99935.47;;;24.54;52.53
79230;BME280;68663;49.122;17.544;2023-08-12T07:53:36;99938.69;;;24.56;52.61
79230;BME280;68663;49.122;17.544;2023-08-12T07:56:02;99951.16;;;24.59;52.91
79230;BME280;68663;49.122;17.544;2023-08-12T07:58:27;99937.84;;;24.59;56.80
79230;BME280;68663;49.122;17.544;2023-08-12T08:00:53;99946.69;;;24.61;56.15
79230;BME280;68663;49.122;17.544;2023-08-12T08:03:19;99945.91;;;24.61;53.13
79230;BME280;68663;49.122;17.544;2023-08-12T08:05:44;99939.81;;;24.62;54.57
79230;BME280;68663;49.122;17.544;2023-08-12T08:08:12;99941.84;;;24.62;53.65
79230;BME280;68663;49.122;17.544;2023-08-12T08:10:38;99941.44;;;24.63;53.86
79230;BME280;68663;49.122;17.544;2023-08-12T08:13:03;99943.47;;;24.63;54.02
79230;BME280;68663;49.122;17.544;2023-08-12T08:15:28;99937.81;;;24.63;53.54
79230;BME280;68663;49.122;17.544;2023-08-12T08:17:54;99936.16;;;24.65;53.62
79230;BME280;68663;49.122;17.544;2023-08-12T08:20:19;99947.47;;;24.65;53.42
79230;BME280;68663;49.122;17.544;2023-08-12T08:22:45;99937.75;;;24.66;53.44
79230;BME280;68663;49.122;17.544;2023-08-12T08:25:10;99933.72;;;24.67;52.96
79230;BME280;68663;49.122;17.544;2023-08-12T08:27:35;99936.13;;;24.69;53.17
79230;BME280;68663;49.122;17.544;2023-08-12T08:30:01;99931.25;;;24.69;53.12
79230;BME280;68663;49.122;17.544;2023-08-12T08:32:26;99930.47;;;24.69;52.49
79230;BME280;68663;49.122;17.544;2023-08-12T08:34:52;99931.25;;;24.69;52.90
79230;BME280;68663;49.122;17.544;2023-08-12T08:37:17;99933.66;;;24.71;53.13
79230;BME280;68663;49.122;17.544;2023-08-12T08:39:42;99934.47;;;24.71;53.00
79230;BME280;68663;49.122;17.544;2023-08-12T08:42:09;99928.00;;;24.71;52.72
79230;BME280;68663;49.122;17.544;2023-08-12T08:44:36;99934.06;;;24.73;52.44
79230;BME280;68663;49.122;17.544;2023-08-12T08:47:06;99928.81;;;24.71;52.34
79230;BME280;68663;49.122;17.544;2023-08-12T08:49:34;99931.22;;;24.73;52.23
79230;BME280;68663;49.122;17.544;2023-08-12T08:52:01;99932.81;;;24.74;51.74
79230;BME280;68663;49.122;17.544;2023-08-12T08:54:27;99937.66;;;24.77;52.03
79230;BME280;68663;49.122;17.544;2023-08-12T08:56:52;99942.50;;;24.76;51.96
79230;BME280;68663;49.122;17.544;2023-08-12T08:59:18;99940.47;;;24.77;51.73
79230;BME280;68663;49.122;17.544;2023-08-12T09:01:45;99932.00;;;24.77;51.93
79230;BME280;68663;49.122;17.544;2023-08-12T09:04:16;99929.53;;;24.79;51.78
79230;BME280;68663;49.122;17.544;2023-08-12T09:06:43;99932.00;;;24.77;51.63
79230;BME280;68663;49.122;17.544;2023-08-12T09:09:12;99927.94;;;24.78;51.56
79230;BME280;68663;49.122;17.544;2023-08-12T09:11:39;99922.28;;;24.78;51.63
79230;BME280;68663;49.122;17.544;2023-08-12T09:14:06;99929.53;;;24.79;51.67
79230;BME280;68663;49.122;17.544;2023-08-12T09:16:31;99920.63;;;24.81;51.79
79230;BME280;68663;49.122;17.544;2023-08-12T09:18:57;99921.06;;;24.79;51.34
79230;BME280;68663;49.122;17.544;2023-08-12T09:21:23;99922.66;;;24.80;51.46
79230;BME280;68663;49.122;17.544;2023-08-12T09:23:48;99910.13;;;24.81;51.36
79230;BME280;68663;49.122;17.544;2023-08-12T09:26:19;99916.19;;;24.80;51.33
79230;BME280;68663;49.122;17.544;2023-08-12T09:28:46;99910.13;;;24.81;52.02
79230;BME280;68663;49.122;17.544;2023-08-12T09:31:25;99914.09;;;24.87;53.14
79230;BME280;68663;49.122;17.544;2023-08-12T09:33:52;99909.09;;;25.02;55.46
79230;BME280;68663;49.122;17.544;2023-08-12T09:36:18;99907.81;;;25.06;53.63
79230;BME280;68663;49.122;17.544;2023-08-12T09:38:47;99905.75;;;25.11;54.75
79230;BME280;68663;49.122;17.544;2023-08-12T09:41:13;99899.66;;;25.12;55.34
79230;BME280;68663;49.122;17.544;2023-08-12T09:43:42;99904.91;;;25.14;54.87
79230;BME280;68663;49.122;17.544;2023-08-12T09:46:11;99903.69;;;25.15;54.18
79230;BME280;68663;49.122;17.544;2023-08-12T09:48:38;99905.31;;;25.16;52.82
79230;BME280;68663;49.122;17.544;2023-08-12T09:51:03;99906.06;;;25.20;52.58
79230;BME280;68663;49.122;17.544;2023-08-12T09:53:29;99914.13;;;25.21;52.90
79230;BME280;68663;49.122;17.544;2023-08-12T09:55:57;99903.59;;;25.22;53.31
79230;BME280;68663;49.122;17.544;2023-08-12T09:58:24;99899.53;;;25.23;53.14
79230;BME280;68663;49.122;17.544;2023-08-12T10:00:49;99895.91;;;25.22;52.77
79230;BME280;68663;49.122;17.544;2023-08-12T10:03:17;99889.44;;;25.22;51.65
79230;BME280;68663;49.122;17.544;2023-08-12T10:05:43;99901.56;;;25.22;51.25
79230;BME280;68663;49.122;17.544;2023-08-12T10:08:09;99899.16;;;25.21;50.72
79230;BME280;68663;49.122;17.544;2023-08-12T10:10:35;99894.34;;;25.18;50.50
79230;BME280;68663;49.122;17.544;2023-08-12T10:13:01;99887.91;;;25.17;51.60
79230;BME280;68663;49.122;17.544;2023-08-12T10:15:27;99887.91;;;25.17;50.30
79230;BME280;68663;49.122;17.544;2023-08-12T10:17:55;99891.53;;;25.18;50.75
79230;BME280;68663;49.122;17.544;2023-08-12T10:20:25;99887.09;;;25.17;50.75
79230;BME280;68663;49.122;17.544;2023-08-12T10:22:51;99872.56;;;25.15;50.33
79230;BME280;68663;49.122;17.544;2023-08-12T10:25:18;99880.22;;;25.14;50.05
79230;BME280;68663;49.122;17.544;2023-08-12T10:27:44;99876.59;;;25.14;49.65
79230;BME280;68663;49.122;17.544;2023-08-12T10:30:10;99879.03;;;25.15;50.15
79230;BME280;68663;49.122;17.544;2023-08-12T10:32:38;99875.78;;;25.17;49.68
79230;BME280;68663;49.122;17.544;2023-08-12T10:35:05;99874.19;;;25.16;49.47
79230;BME280;68663;49.122;17.544;2023-08-12T10:37:32;99868.09;;;25.14;49.28
79230;BME280;68663;49.122;17.544;2023-08-12T10:40:02;99864.47;;;25.13;49.79
79230;BME280;68663;49.122;17.544;2023-08-12T10:42:43;99866.94;;;25.11;49.92
79230;BME280;68663;49.122;17.544;2023-08-12T10:45:10;99865.31;;;25.10;49.75
79230;BME280;68663;49.122;17.544;2023-08-12T10:47:43;99871.41;;;25.08;50.07
79230;BME280;68663;49.122;17.544;2023-08-12T10:50:22;99873.44;;;25.08;50.14
79230;BME280;68663;49.122;17.544;2023-08-12T10:52:53;99866.56;;;25.09;49.96
79230;BME280;68663;49.122;17.544;2023-08-12T10:55:23;99864.16;;;25.07;49.84
79230;BME280;68663;49.122;17.544;2023-08-12T10:57:51;99862.13;;;25.08;50.13
79230;BME280;68663;49.122;17.544;2023-08-12T11:00:27;99857.25;;;25.08;50.29
79230;BME280;68663;49.122;17.544;2023-08-12T11:02:57;99840.28;;;25.08;49.97
79230;BME280;68663;49.122;17.544;2023-08-12T11:05:23;99847.56;;;25.09;50.31
79230;BME280;68663;49.122;17.544;2023-08-12T11:08:00;99854.00;;;25.10;50.13
79230;BME280;68663;49.122;17.544;2023-08-12T11:10:30;99855.25;;;25.09;50.32
79230;BME280;68663;49.122;17.544;2023-08-12T11:12:57;99847.56;;;25.09;50.36
79230;BME280;68663;49.122;17.544;2023-08-12T11:15:36;99841.09;;;25.09;49.61
79230;BME280;68663;49.122;17.544;2023-08-12T11:18:03;99849.16;;;25.11;49.96
79230;BME280;68663;49.122;17.544;2023-08-12T11:20:30;99837.84;;;25.11;50.84
79230;BME280;68663;49.122;17.544;2023-08-12T11:22:56;99834.59;;;25.12;50.15
79230;BME280;68663;49.122;17.544;2023-08-12T11:25:23;99842.69;;;25.10;49.65
79230;BME280;68663;49.122;17.544;2023-08-12T11:27:49;99830.56;;;25.09;49.67
79230;BME280;68663;49.122;17.544;2023-08-12T11:30:19;99831.81;;;25.08;49.83
79230;BME280;68663;49.122;17.544;2023-08-12T11:32:47;99824.53;;;25.07;50.07
79230;BME280;68663;49.122;17.544;2023-08-12T11:35:14;99820.13;;;25.06;50.12
79230;BME280;68663;49.122;17.544;2023-08-12T11:37:44;99824.16;;;25.05;49.94
79230;BME280;68663;49.122;17.544;2023-08-12T11:40:11;99818.50;;;25.05;49.72
79230;BME280;68663;49.122;17.544;2023-08-12T11:42:41;99814.06;;;25.04;50.05
79230;BME280;68663;49.122;17.544;2023-08-12T11:45:08;99809.66;;;25.03;49.81
79230;BME280;68663;49.122;17.544;2023-08-12T11:47:39;99812.84;;;25.05;50.29
79230;BME280;68663;49.122;17.544;2023-08-12T11:50:05;99811.25;;;25.04;49.95
79230;BME280;68663;49.122;17.544;2023-08-12T11:52:34;99811.25;;;25.04;50.22
79230;BME280;68663;49.122;17.544;2023-08-12T11:54:59;99810.44;;;25.04;50.02
79230;BME280;68663;49.122;17.544;2023-08-12T11:57:26;99801.16;;;25.03;50.37
79230;BME280;68663;49.122;17.544;2023-08-12T12:00:03;99807.63;;;25.04;50.01
79230;BME280;68663;49.122;17.544;2023-08-12T12:02:30;99800.34;;;25.03;50.17
79230;BME280;68663;49.122;17.544;2023-08-12T12:05:11;99796.69;;;25.06;51.08
79230;BME280;68663;49.122;17.544;2023-08-12T12:07:37;99792.66;;;25.03;50.27
79230;BME280;68663;49.122;17.544;2023-08-12T12:10:04;99799.13;;;25.04;50.02
79230;BME280;68663;49.122;17.544;2023-08-12T12:12:33;99796.72;;;25.02;50.00
79230;BME280;68663;49.122;17.544;2023-08-12T12:14:58;99792.28;;;25.01;50.11
79230;BME280;68663;49.122;17.544;2023-08-12T12:17:24;99784.66;;;24.98;50.16
79230;BME280;68663;49.122;17.544;2023-08-12T12:19:55;99781.84;;;24.98;50.20
79230;BME280;68663;49.122;17.544;2023-08-12T12:22:29;99780.22;;;24.97;50.35
79230;BME280;68663;49.122;17.544;2023-08-12T12:24:58;99778.22;;;24.98;50.02
79230;BME280;68663;49.122;17.544;2023-08-12T12:27:24;99770.53;;;24.98;50.15
79230;BME280;68663;49.122;17.544;2023-08-12T12:29:49;99766.88;;;24.98;49.94
79230;BME280;68663;49.122;17.544;2023-08-12T12:32:18;99762.44;;;24.97;50.39
79230;BME280;68663;49.122;17.544;2023-08-12T12:34:43;99761.22;;;24.98;49.86
79230;BME280;68663;49.122;17.544;2023-08-12T12:37:08;99761.22;;;24.98;49.86
79230;BME280;68663;49.122;17.544;2023-08-12T12:39:34;99755.56;;;24.98;49.97
79230;BME280;68663;49.122;17.544;2023-08-12T12:41:59;99757.59;;;24.97;50.25
79230;BME280;68663;49.122;17.544;2023-08-12T12:44:25;99754.78;;;24.97;49.05
79230;BME280;68663;49.122;17.544;2023-08-12T12:46:51;99755.56;;;24.98;49.74
79230;BME280;68663;49.122;17.544;2023-08-12T12:49:16;99749.50;;;24.99;49.96
79230;BME280;68663;49.122;17.544;2023-08-12T12:51:41;99742.22;;;24.98;50.00